sensor_id;sensor_type;location;lat;lon;timestamp;temperature;humidity
1129;DHT22;553;51.038;7.216;2024-02-04T00:01:42;10.10;99.90
1129;DHT22;553;51.038;7.216;2024-02-04T00:04:09;10.00;99.90
1129;DHT22;553;51.038;7.216;2024-02-04T00:06:36;10.10;99.90
1129;DHT22;553;51.038;7.216;2024-02-04T00:09:03;10.10;99.90
1129;DHT22;553;51.038;7.216;2024-02-04T00:11:31;10.10;99.90
1129;DHT22;553;51.038;7.216;2024-02-04T00:13:57;10.10;99.90
1129;DHT22;553;51.038;7.216;2024-02-04T00:16:24;10.10;99.90
1129;DHT22;553;51.038;7.216;2024-02-04T00:18:51;10.10;99.90
1129;DHT22;553;51.038;7.216;2024-02-04T00:21:19;10.10;99.90
1129;DHT22;553;51.038;7.216;2024-02-04T00:23:46;10.10;99.90
1129;DHT22;553;51.038;7.216;2024-02-04T00:26:12;10.10;99.90
1129;DHT22;553;51.038;7.216;2024-02-04T00:28:39;10.00;99.90
1129;DHT22;553;51.038;7.216;2024-02-04T00:31:10;10.00;99.90
1129;DHT22;553;51.038;7.216;2024-02-04T00:33:37;10.00;99.90
1129;DHT22;553;51.038;7.216;2024-02-04T00:36:04;10.10;99.90
1129;DHT22;553;51.038;7.216;2024-02-04T00:38:31;10.10;99.90
1129;DHT22;553;51.038;7.216;2024-02-04T00:40:58;10.10;99.90
1129;DHT22;553;51.038;7.216;2024-02-04T00:43:25;10.10;99.90
1129;DHT22;553;51.038;7.216;2024-02-04T00:45:51;10.10;99.90
1129;DHT22;553;51.038;7.216;2024-02-04T00:48:18;10.10;99.90
1129;DHT22;553;51.038;7.216;2024-02-04T00:50:45;10.10;99.90
1129;DHT22;553;51.038;7.216;2024-02-04T00:53:14;10.10;99.90
1129;DHT22;553;51.038;7.216;2024-02-04T00:55:41;10.10;99.90
1129;DHT22;553;51.038;7.216;2024-02-04T00:58:08;10.10;99.90
1129;DHT22;553;51.038;7.216;2024-02-04T01:00:34;10.10;99.90
1129;DHT22;553;51.038;7.216;2024-02-04T01:03:01;10.00;99.90
1129;DHT22;553;51.038;7.216;2024-02-04T01:05:28;10.10;99.90
1129;DHT22;553;51.038;7.216;2024-02-04T01:07:54;10.10;99.90
1129;DHT22;553;51.038;7.216;2024-02-04T01:10:21;10.10;99.90
1129;DHT22;553;51.038;7.216;2024-02-04T01:12:48;10.10;99.90
1129;DHT22;553;51.038;7.216;2024-02-04T01:15:15;10.10;99.90
1129;DHT22;553;51.038;7.216;2024-02-04T01:17:41;10.00;99.90
1129;DHT22;553;51.038;7.216;2024-02-04T01:20:09;10.10;99.90
1129;DHT22;553;51.038;7.216;2024-02-04T01:22:36;10.10;99.90
1129;DHT22;553;51.038;7.216;2024-02-04T01:25:03;10.10;99.90
1129;DHT22;553;51.038;7.216;2024-02-04T01:27:31;10.10;99.90
1129;DHT22;553;51.038;7.216;2024-02-04T01:29:58;10.10;99.90
1129;DHT22;553;51.038;7.216;2024-02-04T01:32:24;10.10;99.90
1129;DHT22;553;51.038;7.216;2024-02-04T01:34:52;10.10;99.90
1129;DHT22;553;51.038;7.216;2024-02-04T01:37:19;10.10;99.90
1129;DHT22;553;51.038;7.216;2024-02-04T01:39:45;10.00;99.90
1129;DHT22;553;51.038;7.216;2024-02-04T01:42:12;10.00;99.90
1129;DHT22;553;51.038;7.216;2024-02-04T01:44:39;10.00;99.90
1129;DHT22;553;51.038;7.216;2024-02-04T01:47:06;10.00;99.90
1129;DHT22;553;51.038;7.216;2024-02-04T01:49:33;10.00;99.90
1129;DHT22;553;51.038;7.216;2024-02-04T01:52:00;10.00;99.90
1129;DHT22;553;51.038;7.216;2024-02-04T01:54:27;9.90;99.90
1129;DHT22;553;51.038;7.216;2024-02-04T01:56:59;10.10;99.90
1129;DHT22;553;51.038;7.216;2024-02-04T01:59:29;10.10;99.90
1129;DHT22;553;51.038;7.216;2024-02-04T02:01:59;10.00;99.90
1129;DHT22;553;51.038;7.216;2024-02-04T02:04:26;10.10;99.90
1129;DHT22;553;51.038;7.216;2024-02-04T02:06:54;10.00;99.90
1129;DHT22;553;51.038;7.216;2024-02-04T02:09:21;10.10;99.90
1129;DHT22;553;51.038;7.216;2024-02-04T02:14:39;10.00;99.90
1129;DHT22;553;51.038;7.216;2024-02-04T02:17:14;10.00;99.90
1129;DHT22;553;51.038;7.216;2024-02-04T02:19:54;10.00;99.90
1129;DHT22;553;51.038;7.216;2024-02-04T02:22:29;10.00;99.90
1129;DHT22;553;51.038;7.216;2024-02-04T02:25:02;10.00;99.90
1129;DHT22;553;51.038;7.216;2024-02-04T02:27:31;10.00;99.90
1129;DHT22;553;51.038;7.216;2024-02-04T02:29:58;10.00;99.90
1129;DHT22;553;51.038;7.216;2024-02-04T02:32:25;10.00;99.90
1129;DHT22;553;51.038;7.216;2024-02-04T02:34:52;10.00;99.90
1129;DHT22;553;51.038;7.216;2024-02-04T02:37:26;10.00;99.90
1129;DHT22;553;51.038;7.216;2024-02-04T02:39:56;10.00;99.90
1129;DHT22;553;51.038;7.216;2024-02-04T02:42:25;10.00;99.90
1129;DHT22;553;51.038;7.216;2024-02-04T02:44:54;10.00;99.90
1129;DHT22;553;51.038;7.216;2024-02-04T02:47:22;10.00;99.90
1129;DHT22;553;51.038;7.216;2024-02-04T02:49:53;10.00;99.90
1129;DHT22;553;51.038;7.216;2024-02-04T02:52:22;10.00;99.90
1129;DHT22;553;51.038;7.216;2024-02-04T02:54:49;10.00;99.90
1129;DHT22;553;51.038;7.216;2024-02-04T02:57:16;10.10;99.90
1129;DHT22;553;51.038;7.216;2024-02-04T02:59:42;10.10;99.90
1129;DHT22;553;51.038;7.216;2024-02-04T03:02:09;10.10;99.90
1129;DHT22;553;51.038;7.216;2024-02-04T03:04:37;10.10;99.90
1129;DHT22;553;51.038;7.216;2024-02-04T03:07:05;10.10;99.90
1129;DHT22;553;51.038;7.216;2024-02-04T03:09:33;10.10;99.90
1129;DHT22;553;51.038;7.216;2024-02-04T03:12:00;10.10;99.90
1129;DHT22;553;51.038;7.216;2024-02-04T03:14:27;10.10;99.90
1129;DHT22;553;51.038;7.216;2024-02-04T03:16:53;10.10;99.90
1129;DHT22;553;51.038;7.216;2024-02-04T03:19:21;10.20;99.90
1129;DHT22;553;51.038;7.216;2024-02-04T03:21:48;10.20;99.90
1129;DHT22;553;51.038;7.216;2024-02-04T03:24:15;10.20;99.90
1129;DHT22;553;51.038;7.216;2024-02-04T03:26:42;10.10;99.90
1129;DHT22;553;51.038;7.216;2024-02-04T03:29:09;10.10;99.90
1129;DHT22;553;51.038;7.216;2024-02-04T03:31:35;10.10;99.90
1129;DHT22;553;51.038;7.216;2024-02-04T03:34:02;10.10;99.90
1129;DHT22;553;51.038;7.216;2024-02-04T03:36:30;10.10;99.90
1129;DHT22;553;51.038;7.216;2024-02-04T03:38:57;10.20;99.90
1129;DHT22;553;51.038;7.216;2024-02-04T03:41:24;10.20;99.90
1129;DHT22;553;51.038;7.216;2024-02-04T03:43:51;10.20;99.90
1129;DHT22;553;51.038;7.216;2024-02-04T03:46:18;10.20;99.90
1129;DHT22;553;51.038;7.216;2024-02-04T03:48:45;10.10;99.90
1129;DHT22;553;51.038;7.216;2024-02-04T03:51:16;10.20;99.90
1129;DHT22;553;51.038;7.216;2024-02-04T03:53:44;10.20;99.90
1129;DHT22;553;51.038;7.216;2024-02-04T03:56:11;10.10;99.90
1129;DHT22;553;51.038;7.216;2024-02-04T03:58:38;10.10;99.90
1129;DHT22;553;51.038;7.216;2024-02-04T04:01:04;10.10;99.90
1129;DHT22;553;51.038;7.216;2024-02-04T04:03:31;10.10;99.90
1129;DHT22;553;51.038;7.216;2024-02-04T04:05:58;10.10;99.90
1129;DHT22;553;51.038;7.216;2024-02-04T04:08:25;10.10;99.90
1129;DHT22;553;51.038;7.216;2024-02-04T04:10:53;10.10;99.90
1129;DHT22;553;51.038;7.216;2024-02-04T04:13:19;10.10;99.90
1129;DHT22;553;51.038;7.216;2024-02-04T04:15:46;10.10;99.90
1129;DHT22;553;51.038;7.216;2024-02-04T04:18:13;10.20;99.90
1129;DHT22;553;51.038;7.216;2024-02-04T04:20:40;10.20;99.90
1129;DHT22;553;51.038;7.216;2024-02-04T04:23:07;10.30;99.90
1129;DHT22;553;51.038;7.216;2024-02-04T04:25:34;10.20;99.90
1129;DHT22;553;51.038;7.216;2024-02-04T04:28:01;10.20;99.90
1129;DHT22;553;51.038;7.216;2024-02-04T04:30:28;10.20;99.90
1129;DHT22;553;51.038;7.216;2024-02-04T04:32:56;10.20;99.90
1129;DHT22;553;51.038;7.216;2024-02-04T04:35:24;10.30;99.90
1129;DHT22;553;51.038;7.216;2024-02-04T04:37:52;10.30;99.90
1129;DHT22;553;51.038;7.216;2024-02-04T04:40:19;10.30;99.90
1129;DHT22;553;51.038;7.216;2024-02-04T04:42:46;10.30;99.90
1129;DHT22;553;51.038;7.216;2024-02-04T04:45:13;10.30;99.90
1129;DHT22;553;51.038;7.216;2024-02-04T04:47:41;10.30;99.90
1129;DHT22;553;51.038;7.216;2024-02-04T04:50:08;10.20;99.90
1129;DHT22;553;51.038;7.216;2024-02-04T04:52:35;10.20;99.90
1129;DHT22;553;51.038;7.216;2024-02-04T04:55:02;10.20;99.90
1129;DHT22;553;51.038;7.216;2024-02-04T04:57:29;10.20;99.90
1129;DHT22;553;51.038;7.216;2024-02-04T04:59:56;10.30;99.90
1129;DHT22;553;51.038;7.216;2024-02-04T05:02:27;10.30;99.90
1129;DHT22;553;51.038;7.216;2024-02-04T05:04:53;10.30;99.90
1129;DHT22;553;51.038;7.216;2024-02-04T05:07:20;10.30;99.90
1129;DHT22;553;51.038;7.216;2024-02-04T05:09:48;10.30;99.90
1129;DHT22;553;51.038;7.216;2024-02-04T05:12:15;10.30;99.90
1129;DHT22;553;51.038;7.216;2024-02-04T05:14:41;10.30;99.90
1129;DHT22;553;51.038;7.216;2024-02-04T05:17:09;10.30;99.90
1129;DHT22;553;51.038;7.216;2024-02-04T05:19:36;10.30;99.90
1129;DHT22;553;51.038;7.216;2024-02-04T05:22:03;10.30;99.90
1129;DHT22;553;51.038;7.216;2024-02-04T05:24:30;10.30;99.90
1129;DHT22;553;51.038;7.216;2024-02-04T05:26:56;10.30;99.90
1129;DHT22;553;51.038;7.216;2024-02-04T05:29:23;10.30;99.90
1129;DHT22;553;51.038;7.216;2024-02-04T05:31:50;10.30;99.90
1129;DHT22;553;51.038;7.216;2024-02-04T05:34:17;10.30;99.90
1129;DHT22;553;51.038;7.216;2024-02-04T05:36:44;10.30;99.90
1129;DHT22;553;51.038;7.216;2024-02-04T05:39:16;10.30;99.90
1129;DHT22;553;51.038;7.216;2024-02-04T05:41:43;10.30;99.90
1129;DHT22;553;51.038;7.216;2024-02-04T05:44:10;10.20;99.90
1129;DHT22;553;51.038;7.216;2024-02-04T05:46:38;10.30;99.90
1129;DHT22;553;51.038;7.216;2024-02-04T05:49:05;10.30;99.90
1129;DHT22;553;51.038;7.216;2024-02-04T05:51:37;10.30;99.90
1129;DHT22;553;51.038;7.216;2024-02-04T05:54:04;10.20;99.90
1129;DHT22;553;51.038;7.216;2024-02-04T05:56:30;10.20;99.90
1129;DHT22;553;51.038;7.216;2024-02-04T05:58:57;10.30;99.90
1129;DHT22;553;51.038;7.216;2024-02-04T06:01:24;10.30;99.90
1129;DHT22;553;51.038;7.216;2024-02-04T06:03:51;10.30;99.90
1129;DHT22;553;51.038;7.216;2024-02-04T06:06:18;10.40;99.90
1129;DHT22;553;51.038;7.216;2024-02-04T06:08:47;10.40;99.90
1129;DHT22;553;51.038;7.216;2024-02-04T06:11:14;10.40;99.90
1129;DHT22;553;51.038;7.216;2024-02-04T06:13:43;10.40;99.90
1129;DHT22;553;51.038;7.216;2024-02-04T06:16:10;10.30;99.90
1129;DHT22;553;51.038;7.216;2024-02-04T06:18:39;10.30;99.90
1129;DHT22;553;51.038;7.216;2024-02-04T06:21:07;10.30;99.90
1129;DHT22;553;51.038;7.216;2024-02-04T06:23:34;10.30;99.90
1129;DHT22;553;51.038;7.216;2024-02-04T06:26:01;10.20;99.90
1129;DHT22;553;51.038;7.216;2024-02-04T06:28:28;10.30;99.90
1129;DHT22;553;51.038;7.216;2024-02-04T06:30:55;10.40;99.90
1129;DHT22;553;51.038;7.216;2024-02-04T06:33:22;10.40;99.90
1129;DHT22;553;51.038;7.216;2024-02-04T06:35:51;10.30;99.90
1129;DHT22;553;51.038;7.216;2024-02-04T06:38:18;10.30;99.90
1129;DHT22;553;51.038;7.216;2024-02-04T06:40:45;10.30;99.90
1129;DHT22;553;51.038;7.216;2024-02-04T06:43:12;10.20;99.90
1129;DHT22;553;51.038;7.216;2024-02-04T06:45:38;10.20;99.90
1129;DHT22;553;51.038;7.216;2024-02-04T06:48:05;10.20;99.90
1129;DHT22;553;51.038;7.216;2024-02-04T06:50:33;10.20;99.90
1129;DHT22;553;51.038;7.216;2024-02-04T06:52:59;10.20;99.90
1129;DHT22;553;51.038;7.216;2024-02-04T06:55:26;10.20;99.90
1129;DHT22;553;51.038;7.216;2024-02-04T06:57:53;10.20;99.90
1129;DHT22;553;51.038;7.216;2024-02-04T07:00:19;10.20;99.90
1129;DHT22;553;51.038;7.216;2024-02-04T07:02:48;10.20;99.90
1129;DHT22;553;51.038;7.216;2024-02-04T07:05:15;10.20;99.90
1129;DHT22;553;51.038;7.216;2024-02-04T07:07:42;10.20;99.90
1129;DHT22;553;51.038;7.216;2024-02-04T07:10:09;10.20;99.90
1129;DHT22;553;51.038;7.216;2024-02-04T07:12:36;10.20;99.90
1129;DHT22;553;51.038;7.216;2024-02-04T07:15:03;10.20;99.90
1129;DHT22;553;51.038;7.216;2024-02-04T07:17:30;10.20;99.90
1129;DHT22;553;51.038;7.216;2024-02-04T07:19:57;10.20;99.90
1129;DHT22;553;51.038;7.216;2024-02-04T07:22:24;10.20;99.90
1129;DHT22;553;51.038;7.216;2024-02-04T07:24:50;10.20;99.90
1129;DHT22;553;51.038;7.216;2024-02-04T07:27:17;10.20;99.90
1129;DHT22;553;51.038;7.216;2024-02-04T07:29:44;10.20;99.90
1129;DHT22;553;51.038;7.216;2024-02-04T07:32:11;10.20;99.90
1129;DHT22;553;51.038;7.216;2024-02-04T07:34:37;10.20;99.90
1129;DHT22;553;51.038;7.216;2024-02-04T07:37:04;10.20;99.90
1129;DHT22;553;51.038;7.216;2024-02-04T07:39:31;10.20;99.90
1129;DHT22;553;51.038;7.216;2024-02-04T07:41:58;10.30;99.90
1129;DHT22;553;51.038;7.216;2024-02-04T07:44:29;10.30;99.90
1129;DHT22;553;51.038;7.216;2024-02-04T07:46:56;10.20;99.90
1129;DHT22;553;51.038;7.216;2024-02-04T07:49:22;10.10;99.90
1129;DHT22;553;51.038;7.216;2024-02-04T07:51:49;10.10;99.90
1129;DHT22;553;51.038;7.216;2024-02-04T07:54:16;10.10;99.90
1129;DHT22;553;51.038;7.216;2024-02-04T07:56:42;10.20;99.90
1129;DHT22;553;51.038;7.216;2024-02-04T07:59:10;10.20;99.90
1129;DHT22;553;51.038;7.216;2024-02-04T08:01:36;10.20;99.90
1129;DHT22;553;51.038;7.216;2024-02-04T08:04:03;10.30;99.90
1129;DHT22;553;51.038;7.216;2024-02-04T08:06:32;10.30;99.90
1129;DHT22;553;51.038;7.216;2024-02-04T08:09:01;10.20;99.90
1129;DHT22;553;51.038;7.216;2024-02-04T08:11:28;10.20;99.90
1129;DHT22;553;51.038;7.216;2024-02-04T08:13:54;10.30;99.90
1129;DHT22;553;51.038;7.216;2024-02-04T08:16:21;10.20;99.90
1129;DHT22;553;51.038;7.216;2024-02-04T08:18:48;10.20;99.90
1129;DHT22;553;51.038;7.216;2024-02-04T08:21:15;10.20;99.90
1129;DHT22;553;51.038;7.216;2024-02-04T08:23:42;10.20;99.90
1129;DHT22;553;51.038;7.216;2024-02-04T08:26:08;10.20;99.90
1129;DHT22;553;51.038;7.216;2024-02-04T08:28:36;10.20;99.90
1129;DHT22;553;51.038;7.216;2024-02-04T08:31:02;10.20;99.90
1129;DHT22;553;51.038;7.216;2024-02-04T08:33:29;10.20;99.90
1129;DHT22;553;51.038;7.216;2024-02-04T08:35:56;10.30;99.90
1129;DHT22;553;51.038;7.216;2024-02-04T08:38:23;10.30;99.90
1129;DHT22;553;51.038;7.216;2024-02-04T08:40:50;10.30;99.90
1129;DHT22;553;51.038;7.216;2024-02-04T08:43:16;10.30;99.90
1129;DHT22;553;51.038;7.216;2024-02-04T08:45:43;10.30;99.90
1129;DHT22;553;51.038;7.216;2024-02-04T08:48:10;10.30;99.90
1129;DHT22;553;51.038;7.216;2024-02-04T08:50:37;10.20;99.90
1129;DHT22;553;51.038;7.216;2024-02-04T08:53:03;10.20;99.90
1129;DHT22;553;51.038;7.216;2024-02-04T08:55:30;10.20;99.90
1129;DHT22;553;51.038;7.216;2024-02-04T08:57:57;10.20;99.90
1129;DHT22;553;51.038;7.216;2024-02-04T09:00:24;10.20;99.90
1129;DHT22;553;51.038;7.216;2024-02-04T09:02:51;10.40;99.90
1129;DHT22;553;51.038;7.216;2024-02-04T09:05:18;10.40;99.90
1129;DHT22;553;51.038;7.216;2024-02-04T09:07:45;10.30;99.90
1129;DHT22;553;51.038;7.216;2024-02-04T09:10:12;10.30;99.90
1129;DHT22;553;51.038;7.216;2024-02-04T09:12:39;10.30;99.90
1129;DHT22;553;51.038;7.216;2024-02-04T09:15:06;10.40;99.90
1129;DHT22;553;51.038;7.216;2024-02-04T09:17:33;10.40;99.90
1129;DHT22;553;51.038;7.216;2024-02-04T09:20:00;10.50;99.90
1129;DHT22;553;51.038;7.216;2024-02-04T09:22:28;10.40;99.90
1129;DHT22;553;51.038;7.216;2024-02-04T09:24:54;10.40;99.90
1129;DHT22;553;51.038;7.216;2024-02-04T09:27:22;10.40;99.90
1129;DHT22;553;51.038;7.216;2024-02-04T09:29:49;10.40;99.90
1129;DHT22;553;51.038;7.216;2024-02-04T09:32:16;10.40;99.90
1129;DHT22;553;51.038;7.216;2024-02-04T09:34:45;10.40;99.90
1129;DHT22;553;51.038;7.216;2024-02-04T09:37:12;10.40;99.90
1129;DHT22;553;51.038;7.216;2024-02-04T09:39:39;10.40;99.90
1129;DHT22;553;51.038;7.216;2024-02-04T09:42:06;10.50;99.90
1129;DHT22;553;51.038;7.216;2024-02-04T09:44:34;10.50;99.90
1129;DHT22;553;51.038;7.216;2024-02-04T09:47:02;10.50;99.90
1129;DHT22;553;51.038;7.216;2024-02-04T09:49:30;10.40;99.90
1129;DHT22;553;51.038;7.216;2024-02-04T09:51:59;10.40;99.90
1129;DHT22;553;51.038;7.216;2024-02-04T09:54:29;10.40;99.90
1129;DHT22;553;51.038;7.216;2024-02-04T09:56:57;10.50;99.90
1129;DHT22;553;51.038;7.216;2024-02-04T09:59:24;10.50;99.90
1129;DHT22;553;51.038;7.216;2024-02-04T10:01:52;10.40;99.90
1129;DHT22;553;51.038;7.216;2024-02-04T10:04:20;10.40;99.90
1129;DHT22;553;51.038;7.216;2024-02-04T10:06:47;10.40;99.90
1129;DHT22;553;51.038;7.216;2024-02-04T10:09:14;10.40;99.90
1129;DHT22;553;51.038;7.216;2024-02-04T10:11:41;10.40;99.90
1129;DHT22;553;51.038;7.216;2024-02-04T10:14:08;10.40;99.90
1129;DHT22;553;51.038;7.216;2024-02-04T10:16:35;10.40;99.90
1129;DHT22;553;51.038;7.216;2024-02-04T10:19:03;10.50;99.90
1129;DHT22;553;51.038;7.216;2024-02-04T10:21:30;10.50;99.90
1129;DHT22;553;51.038;7.216;2024-02-04T10:23:57;10.50;99.90
1129;DHT22;553;51.038;7.216;2024-02-04T10:26:29;10.60;99.90
1129;DHT22;553;51.038;7.216;2024-02-04T10:29:01;10.60;99.90
1129;DHT22;553;51.038;7.216;2024-02-04T10:31:28;10.70;99.90
1129;DHT22;553;51.038;7.216;2024-02-04T10:33:55;10.70;99.90
1129;DHT22;553;51.038;7.216;2024-02-04T10:36:23;10.70;99.90
1129;DHT22;553;51.038;7.216;2024-02-04T10:38:49;10.60;99.90
1129;DHT22;553;51.038;7.216;2024-02-04T10:41:17;10.70;99.90
1129;DHT22;553;51.038;7.216;2024-02-04T10:43:44;10.70;99.90
1129;DHT22;553;51.038;7.216;2024-02-04T10:46:19;10.80;99.90
1129;DHT22;553;51.038;7.216;2024-02-04T10:48:54;10.70;99.90
1129;DHT22;553;51.038;7.216;2024-02-04T10:51:25;10.70;99.90
1129;DHT22;553;51.038;7.216;2024-02-04T10:53:54;10.70;99.90
1129;DHT22;553;51.038;7.216;2024-02-04T10:58:58;10.80;99.90
1129;DHT22;553;51.038;7.216;2024-02-04T11:01:27;10.70;99.90
1129;DHT22;553;51.038;7.216;2024-02-04T11:03:55;10.70;99.90
1129;DHT22;553;51.038;7.216;2024-02-04T11:06:23;10.70;99.90
1129;DHT22;553;51.038;7.216;2024-02-04T11:08:51;10.60;99.90
1129;DHT22;553;51.038;7.216;2024-02-04T11:11:22;10.70;99.90
1129;DHT22;553;51.038;7.216;2024-02-04T11:13:54;10.70;99.90
1129;DHT22;553;51.038;7.216;2024-02-04T11:19:42;10.70;99.90
1129;DHT22;553;51.038;7.216;2024-02-04T11:25:28;10.70;99.90
1129;DHT22;553;51.038;7.216;2024-02-04T11:27:59;10.70;99.90
1129;DHT22;553;51.038;7.216;2024-02-04T11:30:27;10.70;99.90
1129;DHT22;553;51.038;7.216;2024-02-04T11:32:54;10.80;99.90
1129;DHT22;553;51.038;7.216;2024-02-04T11:35:21;10.80;99.90
1129;DHT22;553;51.038;7.216;2024-02-04T11:37:49;10.80;99.90
1129;DHT22;553;51.038;7.216;2024-02-04T11:40:17;10.90;99.90
1129;DHT22;553;51.038;7.216;2024-02-04T11:42:46;10.90;99.90
1129;DHT22;553;51.038;7.216;2024-02-04T11:45:13;10.70;99.90
1129;DHT22;553;51.038;7.216;2024-02-04T11:47:41;10.70;99.90
1129;DHT22;553;51.038;7.216;2024-02-04T11:50:08;10.70;99.90
1129;DHT22;553;51.038;7.216;2024-02-04T11:52:39;10.80;99.90
1129;DHT22;553;51.038;7.216;2024-02-04T11:55:13;10.80;99.90
1129;DHT22;553;51.038;7.216;2024-02-04T11:57:40;10.80;99.90
1129;DHT22;553;51.038;7.216;2024-02-04T12:00:07;10.60;99.90
1129;DHT22;553;51.038;7.216;2024-02-04T12:02:37;10.70;99.90
1129;DHT22;553;51.038;7.216;2024-02-04T12:05:04;10.60;99.90
1129;DHT22;553;51.038;7.216;2024-02-04T12:07:31;10.70;99.90
1129;DHT22;553;51.038;7.216;2024-02-04T12:09:59;10.70;99.90
1129;DHT22;553;51.038;7.216;2024-02-04T12:12:27;10.70;99.90
1129;DHT22;553;51.038;7.216;2024-02-04T12:14:54;10.70;99.90
1129;DHT22;553;51.038;7.216;2024-02-04T12:17:21;10.70;99.90
1129;DHT22;553;51.038;7.216;2024-02-04T12:19:48;10.80;99.90
1129;DHT22;553;51.038;7.216;2024-02-04T12:22:17;10.70;99.90
1129;DHT22;553;51.038;7.216;2024-02-04T12:24:43;10.80;99.90
1129;DHT22;553;51.038;7.216;2024-02-04T12:27:11;10.80;99.90
1129;DHT22;553;51.038;7.216;2024-02-04T12:29:38;10.80;99.90
1129;DHT22;553;51.038;7.216;2024-02-04T12:32:05;10.80;99.90
1129;DHT22;553;51.038;7.216;2024-02-04T12:34:33;10.80;99.90
1129;DHT22;553;51.038;7.216;2024-02-04T12:37:01;10.80;99.90
1129;DHT22;553;51.038;7.216;2024-02-04T12:39:28;10.80;99.90
1129;DHT22;553;51.038;7.216;2024-02-04T12:41:56;10.80;99.90
1129;DHT22;553;51.038;7.216;2024-02-04T12:44:22;10.80;99.90
1129;DHT22;553;51.038;7.216;2024-02-04T12:46:52;10.80;99.90
1129;DHT22;553;51.038;7.216;2024-02-04T12:49:20;10.60;99.90
1129;DHT22;553;51.038;7.216;2024-02-04T12:51:51;10.70;99.90
1129;DHT22;553;51.038;7.216;2024-02-04T12:54:22;10.70;99.90
1129;DHT22;553;51.038;7.216;2024-02-04T12:56:53;10.80;99.90
1129;DHT22;553;51.038;7.216;2024-02-04T12:59:25;10.70;99.90
1129;DHT22;553;51.038;7.216;2024-02-04T13:01:54;10.70;99.90
1129;DHT22;553;51.038;7.216;2024-02-04T13:04:21;10.70;99.90
1129;DHT22;553;51.038;7.216;2024-02-04T13:06:48;10.70;99.90
1129;DHT22;553;51.038;7.216;2024-02-04T13:09:16;10.70;99.90
1129;DHT22;553;51.038;7.216;2024-02-04T13:11:43;10.70;99.90
1129;DHT22;553;51.038;7.216;2024-02-04T13:14:10;10.70;99.90
1129;DHT22;553;51.038;7.216;2024-02-04T13:16:40;10.70;99.90
1129;DHT22;553;51.038;7.216;2024-02-04T13:19:07;10.70;99.90
1129;DHT22;553;51.038;7.216;2024-02-04T13:21:34;10.70;99.90
1129;DHT22;553;51.038;7.216;2024-02-04T13:24:01;10.70;99.90
1129;DHT22;553;51.038;7.216;2024-02-04T13:26:28;10.60;99.90
1129;DHT22;553;51.038;7.216;2024-02-04T13:28:54;10.60;99.90
1129;DHT22;553;51.038;7.216;2024-02-04T13:31:21;10.60;99.90
1129;DHT22;553;51.038;7.216;2024-02-04T13:33:48;10.60;99.90
1129;DHT22;553;51.038;7.216;2024-02-04T13:36:15;10.50;99.90
1129;DHT22;553;51.038;7.216;2024-02-04T13:38:42;10.50;99.90
1129;DHT22;553;51.038;7.216;2024-02-04T13:41:13;10.60;99.90
1129;DHT22;553;51.038;7.216;2024-02-04T13:43:40;10.60;99.90
1129;DHT22;553;51.038;7.216;2024-02-04T13:46:06;10.60;99.90
1129;DHT22;553;51.038;7.216;2024-02-04T13:48:34;10.60;99.90
1129;DHT22;553;51.038;7.216;2024-02-04T13:51:01;10.50;99.90
1129;DHT22;553;51.038;7.216;2024-02-04T13:53:28;10.90;99.90
1129;DHT22;553;51.038;7.216;2024-02-04T13:55:54;10.90;99.90
1129;DHT22;553;51.038;7.216;2024-02-04T13:58:26;10.80;99.90
1129;DHT22;553;51.038;7.216;2024-02-04T14:00:53;10.70;99.90
1129;DHT22;553;51.038;7.216;2024-02-04T14:03:20;10.70;99.90
1129;DHT22;553;51.038;7.216;2024-02-04T14:05:47;10.60;99.90
1129;DHT22;553;51.038;7.216;2024-02-04T14:08:13;10.70;99.90
1129;DHT22;553;51.038;7.216;2024-02-04T14:10:40;10.70;99.90
1129;DHT22;553;51.038;7.216;2024-02-04T14:13:07;10.60;99.90
1129;DHT22;553;51.038;7.216;2024-02-04T14:15:36;10.60;99.90
1129;DHT22;553;51.038;7.216;2024-02-04T14:18:04;10.60;99.90
1129;DHT22;553;51.038;7.216;2024-02-04T14:20:31;10.60;99.90
1129;DHT22;553;51.038;7.216;2024-02-04T14:22:57;10.70;99.90
1129;DHT22;553;51.038;7.216;2024-02-04T14:25:24;10.70;99.90
1129;DHT22;553;51.038;7.216;2024-02-04T14:27:56;10.70;99.90
1129;DHT22;553;51.038;7.216;2024-02-04T14:30:22;10.70;99.90
1129;DHT22;553;51.038;7.216;2024-02-04T14:32:49;10.70;99.90
1129;DHT22;553;51.038;7.216;2024-02-04T14:35:17;10.70;99.90
1129;DHT22;553;51.038;7.216;2024-02-04T14:37:43;10.70;99.90
1129;DHT22;553;51.038;7.216;2024-02-04T14:40:11;10.70;99.90
1129;DHT22;553;51.038;7.216;2024-02-04T14:42:38;10.70;99.90
1129;DHT22;553;51.038;7.216;2024-02-04T14:45:09;10.70;99.90
1129;DHT22;553;51.038;7.216;2024-02-04T14:47:37;10.70;99.90
1129;DHT22;553;51.038;7.216;2024-02-04T14:50:04;10.70;99.90
1129;DHT22;553;51.038;7.216;2024-02-04T14:52:31;10.70;99.90
1129;DHT22;553;51.038;7.216;2024-02-04T14:54:57;10.70;99.90
1129;DHT22;553;51.038;7.216;2024-02-04T14:57:24;10.60;99.90
1129;DHT22;553;51.038;7.216;2024-02-04T14:59:51;10.70;99.90
1129;DHT22;553;51.038;7.216;2024-02-04T15:02:18;10.70;99.90
1129;DHT22;553;51.038;7.216;2024-02-04T15:04:44;10.70;99.90
1129;DHT22;553;51.038;7.216;2024-02-04T15:07:11;10.60;99.90
1129;DHT22;553;51.038;7.216;2024-02-04T15:09:38;10.60;99.90
1129;DHT22;553;51.038;7.216;2024-02-04T15:12:06;10.60;99.90
1129;DHT22;553;51.038;7.216;2024-02-04T15:14:33;10.60;99.90
1129;DHT22;553;51.038;7.216;2024-02-04T15:17:00;10.70;99.90
1129;DHT22;553;51.038;7.216;2024-02-04T15:19:27;10.80;99.90
1129;DHT22;553;51.038;7.216;2024-02-04T15:21:54;10.70;99.90
1129;DHT22;553;51.038;7.216;2024-02-04T15:24:21;10.80;99.90
1129;DHT22;553;51.038;7.216;2024-02-04T15:26:48;10.80;99.90
1129;DHT22;553;51.038;7.216;2024-02-04T15:29:16;10.80;99.90
1129;DHT22;553;51.038;7.216;2024-02-04T15:31:44;10.80;99.90
1129;DHT22;553;51.038;7.216;2024-02-04T15:34:13;10.80;99.90
1129;DHT22;553;51.038;7.216;2024-02-04T15:36:40;10.80;99.90
1129;DHT22;553;51.038;7.216;2024-02-04T15:39:07;10.80;99.90
1129;DHT22;553;51.038;7.216;2024-02-04T15:41:38;10.80;99.90
1129;DHT22;553;51.038;7.216;2024-02-04T15:44:05;10.80;99.90
1129;DHT22;553;51.038;7.216;2024-02-04T15:46:33;10.80;99.90
1129;DHT22;553;51.038;7.216;2024-02-04T15:49:01;10.80;99.90
1129;DHT22;553;51.038;7.216;2024-02-04T15:51:31;10.80;99.90
1129;DHT22;553;51.038;7.216;2024-02-04T15:53:58;10.80;99.90
1129;DHT22;553;51.038;7.216;2024-02-04T15:56:29;10.80;99.90
1129;DHT22;553;51.038;7.216;2024-02-04T15:59:05;10.80;99.90
1129;DHT22;553;51.038;7.216;2024-02-04T16:01:36;10.80;99.90
1129;DHT22;553;51.038;7.216;2024-02-04T16:04:04;10.80;99.90
1129;DHT22;553;51.038;7.216;2024-02-04T16:06:31;11.10;99.90
1129;DHT22;553;51.038;7.216;2024-02-04T16:09:02;10.90;99.90
1129;DHT22;553;51.038;7.216;2024-02-04T16:11:52;10.80;99.90
1129;DHT22;553;51.038;7.216;2024-02-04T16:14:26;10.90;99.90
1129;DHT22;553;51.038;7.216;2024-02-04T16:17:01;10.90;99.90
1129;DHT22;553;51.038;7.216;2024-02-04T16:19:31;10.70;99.90
1129;DHT22;553;51.038;7.216;2024-02-04T16:21:58;10.80;99.90
1129;DHT22;553;51.038;7.216;2024-02-04T16:24:25;10.80;99.90
1129;DHT22;553;51.038;7.216;2024-02-04T16:26:52;10.80;99.90
1129;DHT22;553;51.038;7.216;2024-02-04T16:29:19;10.80;99.90
1129;DHT22;553;51.038;7.216;2024-02-04T16:31:46;10.80;99.90